Date,TemperatureHighF,TemperatureAvgF,TemperatureLowF,DewpointHighF,DewpointAvgF,DewpointLowF,HumidityHigh,HumidityAvg,HumidityLow,PressureMaxIn,PressureMinIn,WindSpeedMaxMPH,WindSpeedAvgMPH,GustSpeedMaxMPH,PrecipitationSumIn
2013-1-1,15.4,0.0,-9.4,9.3,-4.4,-14.5,84,81,71,30.29,30.17,6,2,6,0.00
2013-1-2,14.4,-2.8,-15.0,8.5,-7.5,-20.1,82,79,74,30.31,30.27,3,1,5,0.00
2013-1-3,24.8,-0.2,-11.4,22.0,-5.5,-17.2,89,78,54,30.29,29.53,6,1,6,0.01
2013-1-4,24.8,-1.5,-4.4,22.0,-5.9,-8.8,89,81,72,29.96,29.56,5,3,5,24.81
2013-1-5,19.8,2.6,-12.3,12.2,-2.4,-17.5,85,79,70,29.95,29.80,5,1,6,0.00
2013-1-6,30.9,16.3,2.8,20.6,11.1,-1.0,87,80,62,29.80,29.70,7,1,7,0.00
2013-1-7,30.0,17.5,-1.7,25.2,14.0,-5.8,90,86,81,29.76,29.69,7,2,9,0.00
2013-1-8,37.4,29.9,23.2,31.8,26.9,20.7,92,88,77,29.81,29.74,8,2,17,0.12
2013-1-9,42.1,36.4,33.1,32.2,31.1,29.8,91,81,66,29.79,29.33,14,4,15,0.21
2013-1-10,33.1,23.3,18.9,30.2,19.6,14.0,91,86,74,29.38,29.28,20,3,26,0.00
2013-1-11,21.4,14.1,-5.1,14.0,8.2,-9.5,85,77,64,29.66,29.37,15,6,18,0.00
2013-1-12,13.3,-5.9,-20.6,4.5,-11.7,-26.5,83,75,61,29.73,29.65,7,2,9,0.00
2013-1-13,15.6,-7.0,-18.9,5.2,-12.9,-24.7,81,74,61,29.84,29.72,6,2,8,0.00
2013-1-14,12.2,3.4,-16.8,9.1,-1.4,-22.1,89,80,73,29.93,29.82,7,2,7,0.00
2013-1-15,25.0,12.7,-2.6,15.1,7.8,-6.8,88,81,64,30.13,29.94,7,2,7,0.00
2013-1-16,20.7,0.9,-8.9,14.6,-3.8,-13.7,83,80,73,30.17,30.11,5,1,5,0.00
2013-1-17,27.5,1.3,-9.4,20.6,-3.6,-14.2,82,79,69,30.17,30.04,2,0,3,0.00
2013-1-18,19.0,-0.2,-10.5,11.6,-5.2,-15.5,85,79,69,30.05,29.95,6,1,8,0.00
2013-1-19,24.1,-1.0,-11.0,15.4,-5.9,-16.0,84,79,64,30.07,29.99,5,2,5,0.00
2013-1-20,23.7,1.1,-11.6,14.1,-3.9,-16.6,85,79,64,30.06,29.99,6,2,7,0.00
2013-1-21,27.1,1.7,-8.3,18.7,-3.1,-13.2,83,79,65,30.01,29.89,5,1,7,0.00
2013-1-22,21.9,1.7,-12.1,13.7,-3.5,-17.3,85,78,68,29.93,29.82,7,1,8,0.00
2013-1-23,33.8,12.1,-4.2,30.8,7.3,-8.6,90,80,74,29.83,29.71,9,2,12,0.00
2013-1-24,48.2,35.8,32.5,35.4,31.9,30.0,95,86,61,29.85,29.75,8,2,12,0.48
2013-1-25,42.1,36.0,32.9,37.4,32.7,30.0,91,88,79,29.85,29.63,15,2,17,0.32
2013-1-26,40.3,34.1,28.0,34.7,30.7,25.0,92,87,79,29.65,29.47,16,3,20,0.14
2013-1-27,33.8,21.9,7.3,25.2,16.3,4.6,92,80,52,29.58,29.52,0,0,0,0.01
2013-1-28,31.3,18.7,5.7,22.3,14.4,2.3,90,84,65,29.58,29.49,0,0,0,0.00
2013-1-29,35.1,26.6,21.6,26.6,22.4,19.1,92,84,66,29.79,29.47,0,0,0,0.00
2013-1-30,43.3,29.6,24.6,31.8,25.8,21.3,92,86,63,29.88,29.76,8,1,9,0.08
2013-1-31,37.0,30.2,21.6,32.1,27.0,19.1,92,88,80,29.91,29.83,7,1,7,0.07
2013-2-1,45.0,29.2,8.1,35.1,23.7,4.8,91,81,51,30.01,29.83,6,2,9,0.02
2013-2-2,33.1,15.9,3.9,23.7,11.0,0.3,89,81,61,30.05,29.93,6,1,7,0.00
2013-2-3,30.7,17.0,6.4,25.0,13.6,2.9,90,86,77,29.93,29.80,8,1,8,0.00
2013-2-4,43.9,29.1,15.8,30.2,23.7,13.2,92,81,55,29.80,29.70,9,2,9,0.00
2013-2-5,49.5,33.0,21.7,30.2,25.4,19.8,94,75,40,29.69,29.52,12,3,14,0.00
2013-2-6,41.0,24.6,16.7,29.8,18.2,11.7,93,78,45,29.73,29.60,22,3,22,0.00
2013-2-7,34.7,24.5,12.7,23.7,17.6,8.4,89,75,57,29.69,29.52,9,2,9,0.00
2013-2-8,40.1,23.9,9.0,24.7,17.0,4.1,90,76,51,29.57,29.51,25,5,25,0.00
2013-2-9,36.0,25.9,14.9,21.7,16.8,8.7,85,69,44,29.62,29.53,26,8,26,0.00
2013-2-10,41.2,22.7,6.6,19.5,12.9,3.4,90,68,36,29.76,29.62,20,4,20,0.00
2013-2-11,33.6,17.9,9.5,22.0,10.2,3.1,89,72,50,29.94,29.69,9,3,9,24.87
2013-2-12,36.9,24.8,8.6,26.3,17.8,4.8,86,75,54,30.05,29.93,10,2,10,0.00
2013-2-13,45.7,31.2,23.4,30.9,24.9,20.6,90,78,54,30.04,29.96,14,2,14,0.00
2013-2-14,43.9,26.7,15.4,24.1,19.3,10.9,91,75,39,30.14,30.01,8,2,8,0.00
2013-2-15,43.5,26.1,15.4,29.0,19.3,9.4,88,76,54,30.37,30.11,8,2,8,0.00
2013-2-16,50.9,23.5,11.1,30.9,17.7,8.3,94,80,39,30.36,29.92,10,2,10,0.00
2013-2-17,40.6,24.7,6.1,30.8,19.1,2.6,94,80,53,30.07,29.95,11,0,11,0.08
2013-2-18,34.3,13.9,-2.7,20.9,7.0,-7.0,87,74,50,30.07,29.78,8,1,8,0.01
2013-2-19,36.5,21.7,11.3,29.4,17.8,7.2,92,85,74,29.78,29.68,10,1,10,0.06
2013-2-20,40.3,17.3,-6.2,25.3,8.3,-11.0,89,69,46,29.92,29.77,16,2,16,0.02
2013-2-21,33.6,12.8,-15.9,22.0,5.2,-21.9,91,73,37,30.02,29.91,11,2,11,0.01
2013-2-22,34.9,26.6,16.9,29.2,23.0,14.5,96,86,69,30.04,29.75,14,4,14,0.00
2013-2-23,36.1,24.4,12.6,29.4,18.5,8.9,96,79,47,30.12,29.70,22,5,22,0.00
2013-2-24,34.0,15.8,0.9,22.6,9.6,-3.2,90,77,48,30.24,30.11,9,2,9,0.00
2013-2-25,36.9,19.1,4.6,26.6,14.1,1.0,90,81,55,30.16,29.98,11,2,11,0.00
2013-2-26,33.4,14.6,-3.1,22.2,8.1,-7.6,90,76,50,30.25,30.07,9,2,9,0.00
2013-2-27,36.9,15.5,-4.0,23.4,7.8,-8.7,87,72,52,30.30,30.23,9,2,9,0.00
2013-2-28,40.5,27.8,10.8,32.1,24.1,6.4,95,86,70,30.40,30.24,10,1,10,0.01
2013-3-1,53.1,35.7,21.6,41.5,31.8,19.4,95,86,60,30.44,30.38,8,2,8,0.08
2013-3-2,52.9,32.8,19.0,34.6,26.7,17.0,94,80,48,30.40,30.01,9,2,9,0.00
2013-3-3,40.8,32.4,10.8,34.7,18.2,-0.9,92,59,26,30.07,29.94,33,6,33,0.07
2013-3-4,38.1,18.4,-1.3,16.8,4.7,-7.7,78,57,24,30.17,30.06,12,3,12,0.00
2013-3-5,43.2,22.3,2.1,23.3,11.6,-4.9,78,64,43,30.11,29.79,11,2,11,0.00
2013-3-6,39.7,31.4,25.5,34.4,27.2,17.6,91,84,71,29.93,29.69,23,2,23,0.13
2013-3-7,40.5,26.8,10.0,30.3,19.6,4.6,91,75,50,30.03,29.92,12,2,12,0.09
2013-3-8,44.6,22.8,-0.8,27.3,12.4,-5.3,85,66,38,30.00,29.86,20,4,20,0.00
2013-3-9,43.7,25.9,3.7,22.1,13.4,-1.6,82,61,38,30.32,29.99,28,5,28,0.00
2013-3-10,43.2,25.3,4.6,26.4,15.2,-0.6,84,66,45,30.35,30.23,9,3,9,0.00
2013-3-11,48.6,37.8,31.5,37.1,27.5,22.6,89,68,46,30.24,30.17,14,3,14,0.00
2013-3-12,48.9,37.0,24.1,34.3,28.1,18.6,84,71,54,30.22,30.16,10,2,10,0.00
2013-3-13,50.9,38.7,31.1,39.4,30.6,25.3,88,73,56,30.24,30.19,9,2,9,0.00
2013-3-14,52.2,36.2,23.0,35.3,26.8,19.4,91,70,44,30.24,30.11,17,2,17,0.00
2013-3-15,53.6,39.6,28.0,36.4,28.0,21.8,83,64,42,30.14,30.07,10,2,10,0.00
2013-3-16,49.3,33.6,16.5,33.5,23.8,12.6,89,70,41,30.09,29.81,24,4,24,0.00
2013-3-17,36.3,29.1,19.0,29.8,15.9,10.1,82,58,43,30.02,29.77,52,8,52,0.02
2013-3-18,40.3,27.1,14.5,23.9,15.0,7.2,81,62,40,30.11,30.00,18,5,18,0.01
2013-3-19,47.3,27.6,3.7,21.8,10.0,-2.0,81,52,14,30.19,29.97,12,3,12,0.00
2013-3-20,44.6,37.1,30.9,41.6,31.7,18.0,94,82,48,29.98,29.68,31,5,31,0.78
2013-3-21,35.8,27.5,19.0,28.2,20.8,14.5,87,76,55,30.02,29.84,17,1,17,0.01
2013-3-22,32.5,23.0,12.2,23.6,15.6,5.3,90,74,49,30.11,29.92,26,5,26,0.04
2013-3-23,22.6,7.9,0.0,16.6,3.2,-4.5,85,79,68,30.20,30.10,7,2,7,0.00
2013-3-24,40.1,24.6,1.2,18.3,10.9,-3.7,85,58,35,30.20,30.09,15,4,15,0.00
2013-3-25,46.6,27.2,8.2,23.7,14.1,1.9,83,60,33,30.13,29.97,10,2,10,0.00
2013-3-26,55.0,37.7,28.0,31.3,25.5,21.1,83,63,35,29.98,29.93,12,3,12,0.00
2013-3-27,51.1,34.5,19.9,35.1,26.7,15.9,88,74,52,30.02,29.97,10,2,10,0.00
2013-3-28,57.6,40.4,26.4,37.7,28.8,21.6,90,66,37,30.09,30.01,18,2,18,0.00
2013-3-29,54.5,40.9,30.4,44.7,32.4,25.0,91,72,53,30.20,30.09,14,3,14,0.04
2013-3-30,57.9,32.7,22.5,38.6,23.7,17.9,92,73,26,30.26,30.14,11,2,11,0.00
2013-3-31,63.9,38.9,18.3,34.1,22.2,13.3,88,56,18,30.15,29.94,11,2,11,0.00
2013-4-1,61.9,42.9,22.5,35.4,26.7,16.8,83,56,30,30.03,29.96,18,4,18,0.00
2013-4-2,65.7,44.9,25.2,40.3,30.8,21.0,89,61,31,30.10,30.02,14,3,14,0.00
2013-4-3,61.9,44.8,28.6,43.9,32.6,23.6,90,66,35,30.16,30.07,14,3,14,0.01
2013-4-4,58.8,43.1,32.4,41.4,34.6,26.7,86,73,44,30.09,29.88,25,2,25,0.00
2013-4-5,52.3,42.3,34.0,42.5,36.1,27.1,95,80,53,29.99,29.91,14,3,14,0.11
2013-4-6,46.0,40.4,35.1,42.1,36.9,21.6,93,87,77,29.99,29.89,15,3,15,0.38
2013-4-7,42.6,36.8,33.3,41.0,35.1,31.1,97,94,88,29.89,29.71,23,4,23,0.60
2013-4-8,43.2,35.0,26.4,33.6,26.5,22.9,95,72,51,30.00,29.74,32,8,32,0.01
2013-4-9,50.4,37.7,27.0,25.7,22.7,18.9,75,56,33,30.19,29.99,28,8,28,0.00
2013-4-10,53.8,39.3,26.8,38.1,29.3,19.2,83,68,42,30.20,29.98,14,3,14,0.01
2013-4-11,55.2,41.1,25.7,34.1,26.4,20.8,88,59,31,30.08,30.00,23,5,23,0.00
2013-4-12,54.1,39.0,20.7,30.9,21.8,16.0,86,55,25,30.04,29.75,15,4,15,0.00
2013-4-13,44.4,36.9,27.3,32.8,17.5,2.8,73,47,23,29.87,29.66,30,8,30,0.02
2013-4-14,42.1,30.2,20.8,26.1,18.7,12.4,85,64,39,29.88,29.77,22,4,22,0.00
2013-4-15,41.2,29.5,20.1,29.8,24.0,17.2,91,80,52,29.85,29.74,24,6,24,0.01
2013-4-16,43.5,32.2,22.8,24.6,17.8,11.8,84,58,30,30.10,29.83,37,10,37,0.00
2013-4-17,44.1,31.9,18.9,16.2,10.6,3.3,71,44,19,30.25,30.10,37,8,37,0.00
2013-4-18,50.2,34.0,17.2,26.0,17.4,7.6,72,52,33,30.29,30.21,23,4,23,0.00
2013-4-19,44.4,39.5,35.8,40.4,34.6,25.0,92,83,61,30.22,29.99,20,3,20,0.20
2013-4-20,53.4,41.6,32.4,43.8,34.0,24.0,96,77,44,30.14,30.04,20,4,20,0.11
2013-4-21,51.3,40.5,28.4,37.2,29.1,23.0,87,66,41,30.13,30.00,20,5,20,0.00
2013-4-22,45.5,36.4,27.9,29.5,20.6,13.7,82,56,29,30.28,30.04,35,10,35,0.00
2013-4-23,49.3,34.8,15.3,25.5,13.8,1.0,83,47,17,30.28,30.10,18,4,18,0.15
2013-4-24,59.2,39.2,17.2,28.0,16.6,9.0,81,46,14,30.26,30.09,15,4,15,0.00
2013-4-25,63.3,44.0,24.1,33.0,22.3,16.9,80,48,18,30.12,30.02,17,4,17,0.00
2013-4-26,69.6,48.0,26.4,37.4,28.9,19.4,81,53,20,30.25,30.12,20,4,20,0.00
2013-4-27,69.3,50.8,27.7,42.5,28.9,18.0,87,51,16,30.27,30.10,17,4,17,0.00
2013-4-28,60.3,51.3,41.7,41.6,30.8,20.4,73,48,22,30.12,30.02,23,6,23,0.00
2013-4-29,52.7,45.2,30.9,40.7,25.9,6.7,82,49,20,30.03,29.88,38,8,38,0.05
2013-4-30,42.1,29.7,19.0,23.5,15.6,10.4,79,56,32,30.23,29.92,33,7,33,0.00
2013-5-1,53.2,35.4,13.6,23.7,14.2,7.6,83,48,18,30.51,30.22,28,6,28,0.00
2013-5-2,66.4,42.9,17.4,29.6,18.6,9.9,80,45,12,30.53,30.30,20,4,20,0.00
2013-5-3,40.1,35.4,34.0,23.2,22.4,20.0,63,59,48,30.31,30.27,5,1,5,0.00
2013-5-4,65.1,51.5,39.0,32.4,29.1,26.0,68,45,23,30.14,30.02,28,12,28,0.00
2013-5-5,72.1,49.2,25.3,39.5,29.7,19.2,82,51,19,30.03,29.93,25,4,25,0.00
2013-5-6,76.6,52.8,27.3,43.1,30.8,17.5,87,51,12,29.99,29.86,22,4,22,0.00
2013-5-7,76.1,55.1,31.1,45.9,35.2,26.0,86,54,18,30.05,29.90,25,5,25,0.01
2013-5-8,77.0,58.5,36.0,49.8,38.0,22.3,90,55,14,30.14,30.02,28,4,28,0.00
2013-5-9,79.5,59.4,36.3,48.0,36.4,26.6,87,49,16,30.20,30.11,30,6,30,0.00
2013-5-10,80.2,59.7,33.1,47.3,32.5,18.5,86,44,10,30.29,30.20,23,5,23,0.00
2013-5-11,81.1,57.6,34.2,47.3,36.5,28.0,85,52,15,30.31,30.18,18,3,18,0.00
2013-5-12,82.8,61.9,37.6,49.9,39.9,31.8,87,50,16,30.23,30.06,18,3,18,0.00
2013-5-13,81.1,55.9,38.5,51.9,40.8,29.3,88,62,17,30.12,29.96,25,4,25,0.00
2013-5-14,70.9,54.4,34.2,45.5,34.3,23.4,91,53,20,30.12,30.03,18,4,18,0.00
2013-5-15,70.7,53.2,33.8,45.1,34.9,27.3,84,54,22,30.08,29.93,28,4,28,0.00
2013-5-16,61.7,51.3,41.5,45.0,40.2,36.3,89,67,46,29.97,29.88,23,4,23,0.01
2013-5-17,55.0,47.1,42.8,49.7,43.6,40.5,95,88,74,30.00,29.90,17,3,17,0.50
2013-5-18,59.5,48.7,39.7,49.0,40.2,34.2,100,75,42,30.11,29.98,15,4,15,0.15
2013-5-19,57.6,47.4,36.5,41.0,36.7,31.3,90,68,46,30.23,30.10,35,6,35,0.00
2013-5-20,72.0,52.0,27.7,43.3,35.6,23.8,91,58,28,30.24,30.05,15,3,15,0.00
2013-5-21,70.7,53.1,32.7,46.2,36.3,28.1,89,58,24,30.05,29.71,30,5,30,0.00
2013-5-22,48.4,40.6,27.0,38.4,26.9,11.2,88,62,25,29.98,29.75,20,4,20,0.00
2013-5-23,60.6,40.7,14.5,29.3,17.5,2.5,84,46,11,29.98,29.89,20,4,20,0.00
2013-5-24,58.3,43.8,28.0,34.5,29.0,20.6,80,58,36,30.01,29.97,16,4,16,0.00
2013-5-25,64.8,50.0,37.4,43.2,34.1,26.8,83,58,28,30.01,29.97,20,4,20,0.00
2013-5-26,60.8,45.9,34.7,46.0,37.9,27.3,89,74,51,30.01,29.94,18,3,18,0.05
2013-5-27,62.1,48.7,39.2,48.6,40.5,34.1,96,76,39,30.02,29.88,14,3,14,0.17
2013-5-28,54.5,47.2,40.6,49.0,43.0,36.2,97,86,63,29.91,29.82,20,3,20,0.33
2013-5-29,54.3,44.1,37.0,49.6,40.6,33.5,95,88,75,29.95,29.78,17,3,17,0.27
2013-5-30,58.5,46.2,33.8,48.1,38.6,28.7,100,76,48,30.12,29.94,28,6,28,0.01
2013-5-31,66.2,45.8,26.8,40.9,31.5,24.0,93,64,25,30.23,30.12,25,5,25,0.00
2013-6-1,72.3,54.3,29.3,42.1,35.2,23.6,86,52,24,30.26,30.04,10,2,10,0.00
2013-6-2,70.5,51.8,36.1,48.6,38.1,30.9,86,62,34,30.04,29.89,26,5,26,0.00
2013-6-3,69.3,51.1,28.9,43.1,33.9,25.0,90,57,23,30.09,30.02,23,4,23,0.00
2013-6-4,75.0,56.2,31.5,44.9,35.2,27.5,90,51,20,30.14,30.06,18,4,18,0.00
2013-6-5,79.9,59.4,35.2,48.1,39.2,30.8,88,53,21,30.16,30.08,17,3,17,0.00
2013-6-6,83.8,62.0,41.2,55.4,43.9,35.4,90,57,21,30.14,30.03,16,2,16,0.00
2013-6-7,82.8,65.2,41.5,54.5,43.4,32.6,89,51,18,30.09,29.99,16,4,16,0.00
2013-6-8,81.5,62.5,38.8,47.7,37.3,19.3,86,47,13,30.12,30.06,20,4,20,0.00
2013-6-9,82.8,63.5,39.6,53.2,40.3,22.3,86,50,12,30.10,29.91,14,4,14,0.00
2013-6-10,84.6,64.5,40.1,48.1,37.8,20.2,85,45,13,29.96,29.79,24,4,24,0.00
2013-6-11,75.9,61.9,45.7,50.1,40.2,32.3,79,48,22,30.00,29.83,15,3,15,0.00
2013-6-12,74.1,58.4,38.3,48.4,38.3,26.6,87,53,20,30.03,29.96,22,4,22,0.00
2013-6-13,63.3,52.3,42.8,47.8,37.4,27.9,92,60,29,30.11,30.00,30,5,30,0.04
2013-6-14,62.4,49.5,39.2,42.9,35.8,30.3,86,62,33,30.21,30.10,17,4,17,0.00
2013-6-15,77.4,54.0,25.0,44.9,32.0,20.3,89,51,17,30.15,30.03,17,3,17,0.00
2013-6-16,85.1,61.0,32.7,46.8,33.9,18.9,85,45,10,30.10,30.02,14,3,14,0.00
2013-6-17,83.7,63.0,38.1,50.6,37.3,22.7,81,45,13,30.11,29.94,12,3,12,0.00
2013-6-18,79.7,60.4,36.9,51.2,39.4,31.0,86,52,19,29.97,29.80,33,4,33,0.01
2013-6-19,54.5,47.2,40.8,51.6,42.1,35.8,94,83,66,30.02,29.78,38,4,38,0.43
2013-6-20,59.2,47.0,37.6,45.4,37.5,29.6,95,72,44,30.08,30.01,18,3,18,0.07
2013-6-21,60.1,47.4,30.9,43.8,35.7,26.4,89,66,40,30.11,30.06,12,4,17,0.00
2013-6-22,69.4,51.4,32.9,46.0,38.3,28.9,93,65,35,30.11,30.03,18,3,18,0.00
2013-6-23,77.0,55.9,33.4,50.7,41.9,29.7,92,64,29,30.04,29.77,15,2,15,0.00
2013-6-24,65.5,55.6,50.7,55.9,50.4,47.1,94,83,57,29.90,29.78,14,3,14,0.32
2013-6-25,58.1,53.5,49.3,57.3,52.1,48.0,100,95,89,30.03,29.89,11,2,11,0.27
2013-6-26,69.1,59.3,51.8,61.9,55.0,49.7,100,87,64,30.18,30.01,12,2,12,0.08
2013-6-27,87.3,73.0,50.7,62.2,53.6,47.3,90,54,29,30.27,30.17,12,3,12,0.00
2013-6-28,93.4,69.4,42.6,59.5,49.4,39.3,92,56,18,30.31,30.15,15,3,15,0.00
2013-6-29,95.9,74.4,55.6,65.9,55.5,47.4,87,58,22,30.20,30.03,16,3,17,0.00
2013-6-30,95.0,75.4,55.9,65.3,56.2,44.5,92,57,22,30.18,30.08,18,4,18,0.00
2013-7-1,99.7,76.4,54.9,65.6,56.4,48.3,88,56,20,30.18,30.08,11,2,11,0.00
2013-7-2,98.4,77.5,58.3,66.8,58.7,50.6,85,57,21,30.21,30.09,20,3,20,0.00
2013-7-3,94.5,75.4,60.1,64.8,57.0,45.3,88,58,23,30.18,30.05,18,3,18,0.00
2013-7-4,87.6,67.7,49.6,58.3,49.3,43.2,83,56,24,30.09,29.93,11,2,11,0.00
2013-7-5,83.1,64.7,45.3,57.5,44.4,28.1,86,53,18,29.99,29.89,11,3,11,0.04
2013-7-6,84.9,63.2,41.5,54.1,40.4,26.9,87,51,13,30.01,29.91,11,3,11,0.00
2013-7-7,89.1,65.6,41.4,53.8,44.0,34.6,81,51,20,30.01,29.92,12,2,12,0.00
2013-7-8,84.9,65.4,43.9,57.6,43.0,27.9,89,52,14,30.17,29.96,20,3,20,0.00
2013-7-9,89.6,66.8,41.2,54.9,41.1,27.1,80,46,12,30.24,30.13,10,2,10,0.00
2013-7-10,93.4,68.4,41.5,54.2,44.3,33.0,88,50,13,30.15,29.96,16,2,16,0.00
2013-7-11,79.9,62.5,50.7,60.3,48.5,42.5,85,63,30,30.04,29.98,26,3,26,0.04
2013-7-12,84.0,64.0,43.2,59.0,46.7,38.6,94,60,22,30.03,29.91,20,4,20,0.00
2013-7-13,81.7,62.4,42.1,48.6,39.4,26.8,85,49,15,30.16,30.00,20,3,20,0.00
2013-7-14,87.8,65.1,41.0,48.9,39.0,26.8,87,47,12,30.22,30.06,15,2,15,0.00
2013-7-15,59.4,47.3,40.5,46.2,38.9,35.0,87,73,50,30.11,30.08,10,1,15,0.00
2013-7-16,93.0,72.4,47.3,58.0,52.0,41.8,86,52,22,30.06,29.94,24,6,24,0.00
2013-7-17,89.8,72.2,54.7,62.5,48.3,21.7,89,51,10,30.20,30.04,11,2,11,0.00
2013-7-18,90.3,68.6,45.1,54.9,42.4,22.5,84,47,10,30.26,30.13,17,3,17,0.00
2013-7-19,95.5,70.0,42.6,54.0,41.4,24.7,87,45,10,30.20,30.06,23,2,23,0.00
2013-7-20,93.6,70.1,44.2,51.9,39.9,22.8,83,42,10,30.12,29.98,14,2,14,0.00
2013-7-21,92.3,67.6,41.9,48.6,37.0,20.4,81,42,10,30.05,29.97,16,2,16,0.00
2013-7-22,90.5,65.0,36.3,49.4,33.9,20.4,82,42,10,30.12,30.02,14,2,14,0.00
2013-7-23,93.6,66.6,36.5,49.5,36.7,21.8,82,42,10,30.19,30.07,15,2,15,0.00
2013-7-24,94.8,70.7,48.4,52.4,40.5,26.4,78,41,10,30.15,30.07,17,3,17,0.00
2013-7-25,92.7,69.5,43.5,50.0,42.1,31.3,84,44,12,30.18,30.12,11,2,11,0.00
2013-7-26,90.7,67.8,44.2,54.8,45.7,35.5,84,51,18,30.24,30.12,23,3,23,0.00
2013-7-27,87.8,68.2,52.0,56.5,40.5,17.1,82,46,10,30.14,29.98,14,2,14,0.00
2013-7-28,85.5,62.8,40.1,50.9,33.4,17.4,79,41,10,30.03,29.93,12,2,12,0.00
2013-7-29,81.3,61.1,36.7,44.9,33.8,19.5,75,42,10,30.07,29.97,14,3,14,0.00
2013-7-30,88.2,66.2,45.7,50.5,38.3,21.3,74,42,10,30.19,30.06,14,2,14,0.00
2013-7-31,85.1,64.4,41.4,53.2,43.0,33.5,81,49,22,30.20,30.03,10,2,10,0.00
2013-8-1,80.1,63.1,46.8,54.3,47.4,40.7,81,58,32,30.11,29.92,28,5,28,0.01
2013-8-2,74.5,55.9,36.7,52.8,41.7,34.0,94,64,31,30.14,30.03,20,3,20,0.01
2013-8-3,81.5,59.4,36.3,50.1,37.3,25.1,91,53,13,30.18,30.10,17,2,17,0.00
2013-8-4,86.9,61.6,36.3,49.4,37.6,27.8,87,49,12,30.18,30.07,16,3,16,0.01
2013-8-5,89.2,65.4,39.0,50.9,38.8,24.9,88,46,11,30.12,30.01,14,3,14,0.00
2013-8-6,89.4,66.8,42.3,51.9,39.6,20.8,86,45,10,30.14,30.04,17,3,17,0.00
2013-8-7,90.9,66.3,38.8,50.5,35.4,22.5,84,42,10,30.12,29.99,22,4,22,0.00
2013-8-8,92.1,67.2,48.7,47.7,39.3,27.7,74,42,10,30.07,29.97,30,4,30,0.00
2013-8-9,89.2,67.6,48.2,50.9,42.8,30.9,80,47,13,30.06,29.97,23,4,23,0.00
2013-8-10,85.8,64.3,41.0,51.2,39.8,22.6,88,48,12,30.08,30.02,12,2,12,0.00
2013-8-11,84.0,59.9,46.8,58.4,45.5,33.4,91,65,17,30.12,30.05,24,2,24,0.19
2013-8-12,88.5,63.0,41.7,59.0,44.3,31.3,100,61,13,30.12,30.03,14,2,14,0.00
2013-8-13,88.3,67.4,50.9,58.8,44.2,23.6,93,52,11,30.21,30.08,14,3,14,0.06
2013-8-14,90.9,66.2,41.7,54.7,40.1,25.8,87,47,11,30.15,30.04,12,2,12,0.00
2013-8-15,93.6,67.2,39.0,48.2,35.9,22.8,82,41,10,30.13,30.02,10,2,10,0.00
2013-8-16,90.3,66.3,40.8,51.2,37.7,22.6,80,44,10,30.14,30.05,12,3,12,0.00
2013-8-17,91.6,67.1,42.3,50.8,40.4,33.2,78,44,14,30.16,30.04,18,3,18,0.06
2013-8-18,89.1,67.7,46.2,53.8,42.7,31.5,81,47,14,30.19,30.09,17,3,17,0.00
2013-8-19,91.2,67.7,41.7,50.6,36.8,23.4,82,41,10,30.19,30.06,12,3,12,0.00
2013-8-20,89.8,67.0,41.4,49.0,37.1,23.7,78,41,10,30.15,30.03,15,3,15,0.00
2013-8-21,88.7,66.2,41.2,52.0,41.1,32.5,87,48,15,30.15,30.07,12,3,12,0.00
2013-8-22,87.4,69.9,49.3,54.1,47.1,41.1,80,48,24,30.15,29.98,30,3,30,0.00
2013-8-23,82.4,64.5,48.7,58.0,45.1,31.5,92,56,18,30.07,29.94,20,3,28,0.00
2013-8-24,85.1,62.7,38.8,52.8,40.7,32.9,86,50,17,30.01,29.90,28,3,28,0.00
2013-8-25,84.4,65.8,44.1,52.1,44.5,37.8,85,50,25,30.06,29.96,31,3,31,0.00
2013-8-26,80.6,63.3,45.9,51.6,41.2,32.5,82,50,19,30.13,30.03,15,3,15,0.00
2013-8-27,87.1,62.6,37.8,53.0,42.2,32.6,87,53,20,30.11,29.96,17,3,17,0.01
2013-8-28,82.9,65.6,53.8,62.1,51.4,43.1,96,65,26,30.09,29.98,15,3,15,0.06
2013-8-29,85.8,66.6,50.4,59.4,47.7,37.5,90,56,19,30.14,30.07,15,3,15,0.01
2013-8-30,83.7,61.8,38.8,52.4,40.3,30.9,92,53,16,30.22,30.12,17,3,17,0.00
2013-8-31,87.8,62.0,37.2,52.5,38.9,29.3,89,51,13,30.20,30.05,16,3,16,0.00
2013-9-1,89.6,62.3,37.9,52.5,40.8,28.2,89,53,13,30.11,29.98,16,2,16,0.00
2013-9-2,79.0,61.5,48.0,58.0,49.5,39.7,83,66,38,30.10,30.01,12,2,12,0.01
2013-9-3,79.0,63.9,54.7,62.9,55.4,48.8,95,76,45,30.17,30.09,11,2,11,0.04
2013-9-4,86.5,66.8,51.3,61.0,53.5,47.4,94,67,33,30.20,30.07,20,2,20,0.33
2013-9-5,73.6,60.3,52.9,64.6,57.4,51.8,100,91,60,30.18,29.99,23,3,23,0.26
2013-9-6,73.6,58.7,45.0,63.5,48.3,37.1,100,74,31,30.18,30.04,16,3,16,0.00
2013-9-7,77.9,55.8,35.6,50.3,41.0,32.6,93,63,25,30.19,30.07,14,3,14,0.63
2013-9-8,77.0,56.6,36.1,50.0,42.3,32.5,91,62,31,30.12,30.04,20,4,20,0.00
2013-9-9,75.6,57.6,37.9,50.8,42.7,34.3,91,61,32,30.14,30.05,24,4,24,0.00
2013-9-10,81.3,58.8,36.0,52.1,40.0,32.8,92,57,20,30.14,30.05,17,2,17,0.00
2013-9-11,86.0,62.2,36.9,54.3,39.3,31.2,89,52,14,30.19,30.06,16,2,16,0.00
2013-9-12,79.7,63.8,48.7,54.5,48.0,41.0,78,59,34,30.17,30.06,12,2,12,0.00
2013-9-13,67.6,59.7,55.2,64.6,57.2,53.3,100,92,73,30.11,29.95,28,2,28,0.39
2013-9-14,76.1,62.0,48.9,63.6,53.4,46.3,100,78,40,30.03,29.98,22,3,22,0.02
2013-9-15,81.3,64.3,52.3,57.0,51.1,46.0,88,66,32,30.03,29.91,15,3,15,0.02
2013-9-16,76.6,60.5,44.4,59.5,43.9,29.0,97,62,18,30.01,29.94,17,3,17,0.00
2013-9-17,68.5,51.8,37.4,51.4,42.0,33.2,88,71,42,29.95,29.76,22,3,22,0.00
2013-9-18,57.9,46.4,34.0,42.9,38.2,30.1,87,74,46,30.17,29.88,22,4,22,0.00
2013-9-19,66.4,43.9,25.7,47.9,32.5,23.7,100,70,26,30.21,30.07,16,2,16,0.00
2013-9-20,77.5,49.6,24.3,46.2,31.3,21.0,91,58,16,30.09,29.79,14,2,14,0.00
2013-9-21,67.6,54.5,38.7,41.3,35.6,29.5,76,52,31,29.85,29.76,11,3,11,0.00
2013-9-22,59.2,50.4,41.0,45.2,39.3,34.5,86,66,51,29.92,29.75,14,3,14,0.00
2013-9-23,61.2,50.8,39.7,47.8,39.8,37.3,94,68,43,30.07,29.91,17,3,17,0.06
2013-9-24,47.1,44.0,40.6,44.4,40.7,35.6,97,89,72,30.01,29.82,12,2,12,0.57
2013-9-25,44.4,40.6,37.2,41.9,37.6,34.1,100,90,75,29.82,29.73,24,7,24,0.04
2013-9-26,51.6,41.1,35.1,40.9,34.3,28.3,95,78,52,30.02,29.80,25,8,25,0.06
2013-9-27,52.5,40.6,26.4,38.4,31.3,23.6,92,71,45,30.10,30.01,12,3,12,0.09
2013-9-28,51.3,44.7,39.0,48.0,42.2,36.1,100,91,79,30.10,29.88,16,3,16,0.34
2013-9-29,51.8,43.6,38.1,46.1,41.1,37.3,100,91,64,29.91,29.78,28,5,28,1.26
2013-9-30,59.4,45.6,30.9,51.3,36.7,25.1,100,75,37,30.03,29.72,28,4,28,1.16
2013-10-1,58.1,41.1,28.6,41.6,31.9,25.8,92,73,42,30.12,29.99,14,3,14,0.00
2013-10-2,55.2,39.1,23.2,35.4,28.2,21.2,94,68,33,30.12,29.92,18,2,18,0.00
2013-10-3,50.9,39.4,34.0,33.3,30.2,23.9,91,71,41,30.26,29.93,40,11,40,0.08
2013-10-4,45.0,32.3,25.2,29.5,25.8,20.9,87,77,51,30.38,30.25,10,2,10,0.00
2013-10-5,66.0,42.5,20.1,34.5,27.4,17.2,89,60,25,30.43,30.34,12,2,12,0.00
2013-10-6,74.3,43.7,20.5,35.4,25.7,9.6,92,59,10,30.37,30.11,11,2,11,0.00
2013-10-7,66.7,44.8,25.2,40.1,27.4,21.9,89,57,19,30.12,29.95,15,2,15,0.00
2013-10-8,53.1,39.3,27.1,34.9,30.8,23.6,92,73,42,30.00,29.92,15,2,15,0.01
2013-10-9,58.8,39.3,22.8,40.1,30.3,21.4,95,74,37,29.96,29.85,17,3,17,0.00
2013-10-10,55.8,35.7,23.2,36.8,27.5,21.2,94,76,33,29.89,29.83,22,3,22,0.00
2013-10-16,59.7,36.2,20.8,34.1,25.5,17.8,91,69,29,30.22,30.10,8,1,8,0.00
2013-10-17,56.3,36.7,19.2,34.5,24.9,16.5,91,66,35,30.22,30.14,14,3,14,0.00
2013-10-18,60.6,36.7,18.0,32.0,24.3,15.0,91,66,27,30.28,30.21,7,1,7,0.00
2013-10-19,66.7,37.7,18.1,34.5,25.2,15.4,89,66,22,30.24,30.11,9,1,9,0.00
2013-10-20,61.7,40.7,19.4,33.4,27.2,16.4,90,63,29,30.18,30.12,16,3,16,0.00
2013-10-21,66.9,42.3,24.3,37.9,29.8,20.9,92,66,26,30.24,30.18,8,2,8,0.00
2013-10-22,69.8,46.9,22.5,40.3,32.7,20.1,95,63,28,30.25,30.15,9,1,9,0.00
2013-10-23,71.1,40.8,21.2,40.1,29.3,19.1,93,70,24,30.21,30.12,8,1,8,0.00
2013-10-24,70.7,41.5,20.8,38.7,28.5,18.4,92,66,20,30.19,30.12,8,1,8,0.00
2013-10-25,68.9,40.6,20.1,37.4,27.0,17.7,92,64,19,30.28,30.19,12,1,12,0.00
2013-10-26,66.4,39.3,19.2,37.2,26.4,16.2,92,65,21,30.33,30.17,15,2,15,0.00
2013-10-27,60.1,38.7,18.1,35.1,26.1,15.2,89,65,24,30.17,29.67,18,3,18,0.00
2013-10-28,49.3,39.9,30.9,33.7,29.7,25.2,85,68,46,29.78,29.63,28,6,28,0.00
2013-10-29,51.4,35.3,20.5,33.1,26.4,17.8,92,72,44,29.99,29.78,14,2,14,0.00
2013-10-30,44.2,33.9,23.7,32.7,28.2,20.7,91,80,57,30.11,29.98,10,1,10,0.00
2013-10-31,40.5,30.2,18.9,34.2,27.3,16.2,95,89,77,30.21,30.10,12,1,12,0.04
2013-11-1,50.2,35.6,29.7,38.7,32.9,27.4,100,90,63,30.29,30.13,9,1,9,0.01
2013-11-2,49.8,35.3,26.4,41.2,31.1,23.0,97,85,64,30.13,29.82,18,3,18,0.21
2013-11-3,37.2,29.3,25.3,26.1,22.0,19.0,86,74,53,29.98,29.88,12,2,12,0.00
2013-11-4,38.3,26.1,10.9,25.7,19.6,7.9,90,77,45,30.12,29.95,20,4,20,0.00
2013-11-5,31.3,22.3,7.2,29.5,19.2,3.9,95,88,79,30.21,30.11,10,2,10,0.00
2013-11-6,45.3,36.3,29.1,37.7,32.8,27.7,96,87,71,30.31,30.19,11,1,11,0.05
2013-11-7,45.0,39.6,32.0,42.2,37.9,30.2,100,94,77,30.28,29.90,38,5,38,0.52
2013-11-8,43.2,35.7,26.6,32.8,28.5,23.7,96,76,56,30.12,30.00,18,3,18,0.00
2013-11-9,50.5,36.3,26.8,34.9,28.6,24.5,94,76,42,30.18,30.11,10,1,10,0.00
2013-11-10,57.6,37.4,25.9,38.5,30.7,23.7,94,78,42,30.22,30.15,10,1,10,0.00
2013-11-11,55.8,35.8,23.2,37.9,29.2,21.1,94,79,47,30.33,30.20,7,1,7,0.00
2013-11-12,52.2,37.4,23.9,36.5,30.5,21.8,93,78,52,30.37,30.30,16,1,16,0.00
2013-11-13,55.4,40.1,25.9,44.3,34.1,22.8,97,81,47,30.34,30.25,14,2,14,0.02
2013-11-14,40.8,29.8,23.9,32.8,26.4,21.5,95,87,71,30.26,29.88,11,1,11,0.00
2013-11-15,40.6,29.6,17.1,29.4,23.3,14.9,94,78,52,29.89,29.57,12,3,12,0.00
2013-11-16,38.1,30.6,28.4,29.2,24.0,18.9,95,77,50,29.77,29.44,23,5,23,0.00
2013-11-17,43.0,32.3,23.2,27.6,24.5,20.2,91,74,52,30.07,29.76,14,4,14,0.07
2013-11-18,43.0,29.4,15.4,31.8,23.3,13.2,92,79,56,30.08,29.90,11,2,11,0.00
2013-11-19,41.7,36.8,33.8,38.5,35.2,31.6,100,94,75,29.91,29.81,18,4,18,0.52
2013-11-20,38.1,30.7,18.9,37.3,23.4,7.9,100,76,44,30.09,29.78,24,5,24,0.32
2013-11-21,42.1,22.6,12.4,14.1,9.4,4.0,82,59,23,30.44,30.09,16,3,16,0.00
2013-11-22,46.0,21.6,7.3,19.8,11.9,3.6,88,69,30,30.47,30.39,14,2,14,0.00
2013-11-23,47.7,22.9,9.5,24.6,15.6,6.2,89,75,35,30.40,30.21,7,1,7,0.00
2013-11-24,48.2,23.8,9.9,24.9,16.6,6.8,90,76,38,30.27,30.17,9,1,9,0.00
2013-11-25,57.2,28.5,16.3,29.8,20.5,13.3,89,74,33,30.35,30.24,7,1,7,0.00
2013-11-26,46.9,28.1,15.6,31.3,22.2,13.0,90,79,53,30.35,30.17,7,0,7,0.01
2013-11-27,50.9,28.3,18.5,32.7,22.6,16.4,92,81,45,30.19,30.05,6,0,6,0.00
2013-11-28,45.1,26.0,16.2,29.8,21.1,13.6,91,82,53,30.16,30.08,6,0,6,0.00
2013-11-29,50.4,26.6,13.3,30.7,21.0,10.7,91,80,45,30.24,30.16,7,1,7,0.00
2013-11-30,37.9,32.4,25.2,34.0,29.4,22.3,100,89,75,30.27,30.22,8,0,8,0.05
2013-12-1,42.8,37.9,34.0,41.7,36.4,33.7,100,94,83,30.24,29.90,20,5,20,0.90
2013-12-2,41.4,33.8,20.8,37.5,29.0,14.2,95,82,61,29.90,29.65,28,7,28,0.32
2013-12-3,26.8,17.0,9.0,18.2,12.3,4.7,89,82,60,29.90,29.78,0,0,0,0.00
2013-12-4,23.7,7.8,-2.6,5.0,-0.9,-7.0,83,69,32,30.04,29.89,0,0,0,0.00
2013-12-5,18.5,7.6,-2.4,5.5,0.5,-6.6,84,73,52,30.03,29.97,9,0,9,0.00
2013-12-6,17.2,9.7,2.7,8.3,2.8,-2.8,83,73,54,29.99,29.80,12,4,12,0.00
2013-12-7,18.7,13.3,11.5,9.5,7.5,2.9,86,77,59,29.83,29.73,20,3,20,0.00
2013-12-8,12.0,-3.8,-17.0,1.1,-10.3,-22.8,81,73,59,30.23,29.98,15,3,15,0.00
2013-12-9,17.1,9.6,-11.0,7.2,1.4,-16.2,82,69,59,30.35,30.23,8,2,8,0.00
2013-12-10,24.8,14.1,0.1,10.2,5.8,-4.4,82,70,49,30.31,30.19,12,2,12,0.00
2013-12-11,31.1,13.6,-1.8,18.1,8.3,-6.1,88,79,56,30.37,30.29,9,1,9,0.00
2013-12-12,34.2,12.0,-0.2,20.6,7.0,-4.3,88,80,54,30.33,30.12,8,1,8,0.00
2013-12-13,36.9,25.5,16.0,25.9,21.2,12.7,90,84,63,30.36,30.13,8,1,8,0.01
2013-12-14,40.1,27.5,19.8,30.9,24.3,17.6,93,88,68,30.44,30.35,7,1,7,0.02
2013-12-15,43.3,23.3,11.8,32.2,19.7,8.8,93,86,54,30.41,30.29,8,1,8,0.01
2013-12-16,36.0,16.8,6.4,25.6,12.8,3.2,89,84,65,30.41,30.34,7,1,7,0.00
2013-12-17,40.5,17.0,5.0,25.6,12.2,1.6,88,82,55,30.39,30.10,12,1,12,0.00
2013-12-18,35.1,23.7,10.8,26.4,19.2,7.7,93,83,66,30.10,29.80,7,1,7,0.00
2013-12-19,31.3,20.8,2.8,25.7,13.4,-1.3,95,74,44,29.99,29.79,23,6,23,0.00
2013-12-20,20.3,10.5,-4.4,15.9,6.6,-8.8,90,84,75,29.99,29.73,17,2,17,0.00
2013-12-21,31.5,19.7,6.1,26.9,16.2,2.4,92,86,72,30.04,29.74,6,0,6,0.00
2013-12-22,36.0,28.6,23.2,31.0,25.8,21.0,94,89,80,30.27,30.04,10,1,10,0.01
2013-12-23,37.4,33.7,30.4,34.5,31.7,28.9,100,93,83,30.28,30.14,31,3,31,0.30
2013-12-24,33.8,16.5,0.9,30.4,12.8,-3.0,91,85,65,30.46,30.23,0,0,0,0.00
2013-12-25,21.4,6.6,-2.2,16.3,2.8,-6.2,88,84,74,30.48,30.38,0,0,0,0.00
2013-12-26,31.5,10.8,0.1,23.6,6.9,-3.7,89,84,68,30.41,30.35,0,0,0,0.00
2013-12-27,26.6,12.1,0.1,19.8,8.3,-3.9,90,84,73,30.36,30.15,0,0,0,0.00
2013-12-28,41.2,18.4,5.4,24.5,12.4,2.2,90,78,46,30.32,30.13,17,2,17,0.00
2013-12-29,24.1,10.7,-4.2,17.4,6.0,-8.6,87,81,71,30.32,30.22,8,1,8,0.00
2013-12-30,27.9,19.1,7.2,24.4,14.3,3.7,90,81,71,30.28,30.18,8,1,8,0.00
2013-12-31,36.1,28.9,24.3,30.1,26.2,22.6,94,90,75,30.27,30.12,11,1,11,0.01
2014-1-1,31.1,21.9,10.2,25.0,19.4,7.2,95,90,77,30.35,30.26,10,2,10,0.00
2014-1-2,33.6,21.1,11.3,24.5,17.2,8.3,91,85,68,30.32,30.06,9,1,9,0.00